sensor_id;sensor_type;location;lat;lon;timestamp;temperature;humidity
15013;DHT22;7603;49.432;11.418;2022-08-19T00:00:17;20.40;99.90
15013;DHT22;7603;49.432;11.418;2022-08-19T00:02:43;20.40;99.90
15013;DHT22;7603;49.432;11.418;2022-08-19T00:05:10;20.40;99.90
15013;DHT22;7603;49.432;11.418;2022-08-19T00:07:37;20.40;99.90
15013;DHT22;7603;49.432;11.418;2022-08-19T00:10:05;20.50;99.90
15013;DHT22;7603;49.432;11.418;2022-08-19T00:12:31;20.50;99.90
15013;DHT22;7603;49.432;11.418;2022-08-19T00:14:57;20.50;99.90
15013;DHT22;7603;49.432;11.418;2022-08-19T00:17:22;20.60;99.90
15013;DHT22;7603;49.432;11.418;2022-08-19T00:19:48;20.60;99.90
15013;DHT22;7603;49.432;11.418;2022-08-19T00:22:14;20.60;99.90
15013;DHT22;7603;49.432;11.418;2022-08-19T00:24:41;20.60;99.90
15013;DHT22;7603;49.432;11.418;2022-08-19T00:27:09;20.60;99.90
15013;DHT22;7603;49.432;11.418;2022-08-19T00:29:34;20.60;99.90
15013;DHT22;7603;49.432;11.418;2022-08-19T00:32:00;20.60;99.90
15013;DHT22;7603;49.432;11.418;2022-08-19T00:34:26;20.60;99.90
15013;DHT22;7603;49.432;11.418;2022-08-19T00:36:55;20.60;99.90
15013;DHT22;7603;49.432;11.418;2022-08-19T00:39:21;20.60;99.90
15013;DHT22;7603;49.432;11.418;2022-08-19T00:41:48;20.60;99.90
15013;DHT22;7603;49.432;11.418;2022-08-19T00:44:23;20.60;99.90
15013;DHT22;7603;49.432;11.418;2022-08-19T00:46:50;20.60;99.90
15013;DHT22;7603;49.432;11.418;2022-08-19T00:49:41;20.70;99.90
15013;DHT22;7603;49.432;11.418;2022-08-19T00:52:26;20.70;99.90
15013;DHT22;7603;49.432;11.418;2022-08-19T00:54:55;20.70;99.90
15013;DHT22;7603;49.432;11.418;2022-08-19T00:57:29;20.70;99.90
15013;DHT22;7603;49.432;11.418;2022-08-19T00:59:56;20.70;99.90
15013;DHT22;7603;49.432;11.418;2022-08-19T01:02:23;20.70;99.90
15013;DHT22;7603;49.432;11.418;2022-08-19T01:04:49;20.70;99.90
15013;DHT22;7603;49.432;11.418;2022-08-19T01:07:15;20.70;99.90
15013;DHT22;7603;49.432;11.418;2022-08-19T01:09:42;20.70;99.90
15013;DHT22;7603;49.432;11.418;2022-08-19T01:12:08;20.70;99.90
15013;DHT22;7603;49.432;11.418;2022-08-19T01:14:34;20.70;99.90
15013;DHT22;7603;49.432;11.418;2022-08-19T01:17:01;20.70;99.90
15013;DHT22;7603;49.432;11.418;2022-08-19T01:19:35;20.70;99.90
15013;DHT22;7603;49.432;11.418;2022-08-19T01:22:29;20.70;99.90
15013;DHT22;7603;49.432;11.418;2022-08-19T01:24:56;20.70;99.90
15013;DHT22;7603;49.432;11.418;2022-08-19T01:27:22;20.70;99.90
15013;DHT22;7603;49.432;11.418;2022-08-19T01:29:47;20.70;99.90
15013;DHT22;7603;49.432;11.418;2022-08-19T01:32:15;20.70;99.90
15013;DHT22;7603;49.432;11.418;2022-08-19T01:34:42;20.70;99.90
15013;DHT22;7603;49.432;11.418;2022-08-19T01:37:10;20.70;99.90
15013;DHT22;7603;49.432;11.418;2022-08-19T01:39:38;20.70;99.90
15013;DHT22;7603;49.432;11.418;2022-08-19T01:42:05;20.70;99.90
15013;DHT22;7603;49.432;11.418;2022-08-19T01:44:33;20.70;99.90
15013;DHT22;7603;49.432;11.418;2022-08-19T01:46:59;20.60;99.90
15013;DHT22;7603;49.432;11.418;2022-08-19T01:49:25;20.60;99.90
15013;DHT22;7603;49.432;11.418;2022-08-19T01:51:53;20.60;99.90
15013;DHT22;7603;49.432;11.418;2022-08-19T01:54:20;20.60;99.90
15013;DHT22;7603;49.432;11.418;2022-08-19T01:56:46;20.60;99.90
15013;DHT22;7603;49.432;11.418;2022-08-19T01:59:17;20.60;99.90
15013;DHT22;7603;49.432;11.418;2022-08-19T02:01:44;20.60;99.90
15013;DHT22;7603;49.432;11.418;2022-08-19T02:04:10;20.50;99.90
15013;DHT22;7603;49.432;11.418;2022-08-19T02:06:36;20.50;99.90
15013;DHT22;7603;49.432;11.418;2022-08-19T02:09:03;20.40;99.90
15013;DHT22;7603;49.432;11.418;2022-08-19T02:11:33;20.30;99.90
15013;DHT22;7603;49.432;11.418;2022-08-19T02:14:03;20.20;99.90
15013;DHT22;7603;49.432;11.418;2022-08-19T02:16:29;20.20;99.90
15013;DHT22;7603;49.432;11.418;2022-08-19T02:18:56;20.20;99.90
15013;DHT22;7603;49.432;11.418;2022-08-19T02:21:22;20.20;99.90
15013;DHT22;7603;49.432;11.418;2022-08-19T02:23:49;20.10;99.90
15013;DHT22;7603;49.432;11.418;2022-08-19T02:26:17;20.10;99.90
15013;DHT22;7603;49.432;11.418;2022-08-19T02:28:44;20.10;99.90
15013;DHT22;7603;49.432;11.418;2022-08-19T02:31:11;20.00;99.90
15013;DHT22;7603;49.432;11.418;2022-08-19T02:33:37;20.00;99.90
15013;DHT22;7603;49.432;11.418;2022-08-19T02:36:04;20.00;99.90
15013;DHT22;7603;49.432;11.418;2022-08-19T02:38:30;20.00;99.90
15013;DHT22;7603;49.432;11.418;2022-08-19T02:40:58;20.00;99.90
15013;DHT22;7603;49.432;11.418;2022-08-19T02:43:25;20.00;99.90
15013;DHT22;7603;49.432;11.418;2022-08-19T02:45:51;20.00;99.90
15013;DHT22;7603;49.432;11.418;2022-08-19T02:48:19;20.00;99.90
15013;DHT22;7603;49.432;11.418;2022-08-19T02:50:46;20.00;99.90
15013;DHT22;7603;49.432;11.418;2022-08-19T02:53:12;20.00;99.90
15013;DHT22;7603;49.432;11.418;2022-08-19T02:55:46;20.00;99.90
15013;DHT22;7603;49.432;11.418;2022-08-19T02:58:13;20.00;99.90
15013;DHT22;7603;49.432;11.418;2022-08-19T03:00:47;20.00;99.90
15013;DHT22;7603;49.432;11.418;2022-08-19T03:03:15;19.90;99.90
15013;DHT22;7603;49.432;11.418;2022-08-19T03:05:41;19.90;99.90
15013;DHT22;7603;49.432;11.418;2022-08-19T03:08:08;19.90;99.90
15013;DHT22;7603;49.432;11.418;2022-08-19T03:10:41;19.90;99.90
15013;DHT22;7603;49.432;11.418;2022-08-19T03:13:09;19.90;99.90
15013;DHT22;7603;49.432;11.418;2022-08-19T03:15:39;19.90;99.90
15013;DHT22;7603;49.432;11.418;2022-08-19T03:18:04;19.90;99.90
15013;DHT22;7603;49.432;11.418;2022-08-19T03:20:30;19.90;99.90
15013;DHT22;7603;49.432;11.418;2022-08-19T03:22:56;19.80;99.90
15013;DHT22;7603;49.432;11.418;2022-08-19T03:25:22;19.80;99.90
15013;DHT22;7603;49.432;11.418;2022-08-19T03:27:48;19.80;99.90
15013;DHT22;7603;49.432;11.418;2022-08-19T03:30:14;19.70;99.90
15013;DHT22;7603;49.432;11.418;2022-08-19T03:32:39;19.70;99.90
15013;DHT22;7603;49.432;11.418;2022-08-19T03:35:06;19.70;99.90
15013;DHT22;7603;49.432;11.418;2022-08-19T03:37:32;19.70;99.90
15013;DHT22;7603;49.432;11.418;2022-08-19T03:39:57;19.60;99.90
15013;DHT22;7603;49.432;11.418;2022-08-19T03:42:23;19.60;99.90
15013;DHT22;7603;49.432;11.418;2022-08-19T03:44:50;19.70;99.90
15013;DHT22;7603;49.432;11.418;2022-08-19T03:47:15;19.60;99.90
15013;DHT22;7603;49.432;11.418;2022-08-19T03:49:42;19.60;99.90
15013;DHT22;7603;49.432;11.418;2022-08-19T03:52:08;19.60;99.90
15013;DHT22;7603;49.432;11.418;2022-08-19T03:54:34;19.60;99.90
15013;DHT22;7603;49.432;11.418;2022-08-19T03:57:00;19.60;99.90
15013;DHT22;7603;49.432;11.418;2022-08-19T03:59:33;19.50;99.90
15013;DHT22;7603;49.432;11.418;2022-08-19T04:02:01;19.50;99.90
15013;DHT22;7603;49.432;11.418;2022-08-19T04:04:28;19.50;99.90
15013;DHT22;7603;49.432;11.418;2022-08-19T04:06:54;19.50;99.90
15013;DHT22;7603;49.432;11.418;2022-08-19T04:09:20;19.50;99.90
15013;DHT22;7603;49.432;11.418;2022-08-19T04:11:50;19.50;99.90
15013;DHT22;7603;49.432;11.418;2022-08-19T04:14:21;19.50;99.90
15013;DHT22;7603;49.432;11.418;2022-08-19T04:16:47;19.40;99.90
15013;DHT22;7603;49.432;11.418;2022-08-19T04:19:15;19.40;99.90
15013;DHT22;7603;49.432;11.418;2022-08-19T04:21:43;19.40;99.90
15013;DHT22;7603;49.432;11.418;2022-08-19T04:24:11;19.40;99.90
15013;DHT22;7603;49.432;11.418;2022-08-19T04:26:37;19.40;99.90
15013;DHT22;7603;49.432;11.418;2022-08-19T04:29:16;19.40;99.90
15013;DHT22;7603;49.432;11.418;2022-08-19T04:31:43;19.40;99.90
15013;DHT22;7603;49.432;11.418;2022-08-19T04:34:12;19.40;99.90
15013;DHT22;7603;49.432;11.418;2022-08-19T04:36:39;19.40;99.90
15013;DHT22;7603;49.432;11.418;2022-08-19T04:39:09;19.40;99.90
15013;DHT22;7603;49.432;11.418;2022-08-19T04:41:35;19.50;99.90
15013;DHT22;7603;49.432;11.418;2022-08-19T04:44:20;19.50;99.90
15013;DHT22;7603;49.432;11.418;2022-08-19T04:46:48;19.50;99.90
15013;DHT22;7603;49.432;11.418;2022-08-19T04:49:15;19.50;99.90
15013;DHT22;7603;49.432;11.418;2022-08-19T04:51:43;19.50;99.90
15013;DHT22;7603;49.432;11.418;2022-08-19T04:54:09;19.50;99.90
15013;DHT22;7603;49.432;11.418;2022-08-19T04:56:35;19.50;99.90
15013;DHT22;7603;49.432;11.418;2022-08-19T04:59:01;19.50;99.90
15013;DHT22;7603;49.432;11.418;2022-08-19T05:01:31;19.50;99.90
15013;DHT22;7603;49.432;11.418;2022-08-19T05:03:59;19.60;99.90
15013;DHT22;7603;49.432;11.418;2022-08-19T05:06:26;19.60;99.90
15013;DHT22;7603;49.432;11.418;2022-08-19T05:08:54;19.60;99.90
15013;DHT22;7603;49.432;11.418;2022-08-19T05:11:23;19.60;99.90
15013;DHT22;7603;49.432;11.418;2022-08-19T05:13:49;19.70;99.90
15013;DHT22;7603;49.432;11.418;2022-08-19T05:16:17;19.60;99.90
15013;DHT22;7603;49.432;11.418;2022-08-19T05:18:44;19.70;99.90
15013;DHT22;7603;49.432;11.418;2022-08-19T05:21:29;19.70;99.90
15013;DHT22;7603;49.432;11.418;2022-08-19T05:24:14;19.80;99.90
15013;DHT22;7603;49.432;11.418;2022-08-19T05:26:42;19.80;99.90
15013;DHT22;7603;49.432;11.418;2022-08-19T05:29:09;19.90;99.90
15013;DHT22;7603;49.432;11.418;2022-08-19T05:31:36;19.90;99.90
15013;DHT22;7603;49.432;11.418;2022-08-19T05:34:04;20.00;99.90
15013;DHT22;7603;49.432;11.418;2022-08-19T05:36:44;20.10;99.90
15013;DHT22;7603;49.432;11.418;2022-08-19T05:39:17;20.20;99.90
15013;DHT22;7603;49.432;11.418;2022-08-19T05:41:48;20.30;99.90
15013;DHT22;7603;49.432;11.418;2022-08-19T05:44:15;20.40;99.90
15013;DHT22;7603;49.432;11.418;2022-08-19T05:46:43;20.50;99.90
15013;DHT22;7603;49.432;11.418;2022-08-19T05:49:13;20.60;99.90
15013;DHT22;7603;49.432;11.418;2022-08-19T05:51:39;20.70;99.90
15013;DHT22;7603;49.432;11.418;2022-08-19T05:54:06;20.80;99.90
15013;DHT22;7603;49.432;11.418;2022-08-19T05:56:33;20.90;99.90
15013;DHT22;7603;49.432;11.418;2022-08-19T05:59:00;21.00;99.90
15013;DHT22;7603;49.432;11.418;2022-08-19T06:01:26;21.10;99.90
15013;DHT22;7603;49.432;11.418;2022-08-19T06:03:52;21.20;99.90
15013;DHT22;7603;49.432;11.418;2022-08-19T06:06:19;21.30;99.90
15013;DHT22;7603;49.432;11.418;2022-08-19T06:08:46;21.50;99.90
15013;DHT22;7603;49.432;11.418;2022-08-19T06:11:34;21.60;99.90
15013;DHT22;7603;49.432;11.418;2022-08-19T06:14:04;21.60;99.90
15013;DHT22;7603;49.432;11.418;2022-08-19T06:16:30;21.60;99.90
15013;DHT22;7603;49.432;11.418;2022-08-19T06:18:59;21.70;99.90
15013;DHT22;7603;49.432;11.418;2022-08-19T06:21:27;21.70;99.90
15013;DHT22;7603;49.432;11.418;2022-08-19T06:23:54;21.70;99.90
15013;DHT22;7603;49.432;11.418;2022-08-19T06:26:21;21.80;99.90
15013;DHT22;7603;49.432;11.418;2022-08-19T06:28:48;21.70;99.90
15013;DHT22;7603;49.432;11.418;2022-08-19T06:31:19;21.80;99.90
15013;DHT22;7603;49.432;11.418;2022-08-19T06:33:46;21.90;99.90
15013;DHT22;7603;49.432;11.418;2022-08-19T06:36:25;22.00;99.90
15013;DHT22;7603;49.432;11.418;2022-08-19T06:38:56;22.20;99.90
15013;DHT22;7603;49.432;11.418;2022-08-19T06:41:25;22.50;99.90
15013;DHT22;7603;49.432;11.418;2022-08-19T06:43:52;22.70;99.90
15013;DHT22;7603;49.432;11.418;2022-08-19T06:46:18;22.90;99.90
15013;DHT22;7603;49.432;11.418;2022-08-19T06:48:46;23.10;99.90
15013;DHT22;7603;49.432;11.418;2022-08-19T06:51:14;23.20;99.90
15013;DHT22;7603;49.432;11.418;2022-08-19T06:53:41;23.20;99.90
15013;DHT22;7603;49.432;11.418;2022-08-19T06:56:11;23.10;99.90
15013;DHT22;7603;49.432;11.418;2022-08-19T06:58:38;23.00;99.90
15013;DHT22;7603;49.432;11.418;2022-08-19T07:01:04;22.90;99.90
15013;DHT22;7603;49.432;11.418;2022-08-19T07:03:32;22.80;99.90
15013;DHT22;7603;49.432;11.418;2022-08-19T07:06:08;22.80;99.90
15013;DHT22;7603;49.432;11.418;2022-08-19T07:08:36;22.70;99.90
15013;DHT22;7603;49.432;11.418;2022-08-19T07:11:06;22.70;99.90
15013;DHT22;7603;49.432;11.418;2022-08-19T07:13:32;22.60;99.90
15013;DHT22;7603;49.432;11.418;2022-08-19T07:16:11;22.60;99.90
15013;DHT22;7603;49.432;11.418;2022-08-19T07:18:37;22.50;99.90
15013;DHT22;7603;49.432;11.418;2022-08-19T07:21:08;22.50;99.90
15013;DHT22;7603;49.432;11.418;2022-08-19T07:23:34;22.40;99.90
15013;DHT22;7603;49.432;11.418;2022-08-19T07:26:28;22.40;99.90
15013;DHT22;7603;49.432;11.418;2022-08-19T07:28:55;22.40;99.90
15013;DHT22;7603;49.432;11.418;2022-08-19T07:31:24;22.30;99.90
15013;DHT22;7603;49.432;11.418;2022-08-19T07:33:51;22.40;99.90
15013;DHT22;7603;49.432;11.418;2022-08-19T07:36:22;22.40;99.90
15013;DHT22;7603;49.432;11.418;2022-08-19T07:38:50;22.50;99.90
15013;DHT22;7603;49.432;11.418;2022-08-19T07:41:19;22.50;99.90
15013;DHT22;7603;49.432;11.418;2022-08-19T07:43:45;22.50;99.90
15013;DHT22;7603;49.432;11.418;2022-08-19T07:46:12;22.50;99.90
15013;DHT22;7603;49.432;11.418;2022-08-19T07:48:43;22.50;99.90
15013;DHT22;7603;49.432;11.418;2022-08-19T07:51:11;22.60;99.90
15013;DHT22;7603;49.432;11.418;2022-08-19T07:53:37;22.60;99.90
15013;DHT22;7603;49.432;11.418;2022-08-19T07:56:04;22.60;99.90
15013;DHT22;7603;49.432;11.418;2022-08-19T07:58:38;22.70;99.90
15013;DHT22;7603;49.432;11.418;2022-08-19T08:01:05;22.70;99.90
15013;DHT22;7603;49.432;11.418;2022-08-19T08:03:31;22.70;99.90
15013;DHT22;7603;49.432;11.418;2022-08-19T08:06:16;22.80;99.90
15013;DHT22;7603;49.432;11.418;2022-08-19T08:09:02;22.80;99.90
15013;DHT22;7603;49.432;11.418;2022-08-19T08:11:42;22.80;99.90
15013;DHT22;7603;49.432;11.418;2022-08-19T08:14:09;22.80;99.90
15013;DHT22;7603;49.432;11.418;2022-08-19T08:16:38;22.70;99.90
15013;DHT22;7603;49.432;11.418;2022-08-19T08:19:07;22.80;99.90
15013;DHT22;7603;49.432;11.418;2022-08-19T08:21:34;22.80;99.90
15013;DHT22;7603;49.432;11.418;2022-08-19T08:24:00;22.80;99.90
15013;DHT22;7603;49.432;11.418;2022-08-19T08:26:25;22.90;99.90
15013;DHT22;7603;49.432;11.418;2022-08-19T08:28:52;23.00;99.90
15013;DHT22;7603;49.432;11.418;2022-08-19T08:31:19;23.10;99.90
15013;DHT22;7603;49.432;11.418;2022-08-19T08:33:46;23.10;99.90
15013;DHT22;7603;49.432;11.418;2022-08-19T08:36:12;23.20;99.90
15013;DHT22;7603;49.432;11.418;2022-08-19T08:38:43;23.30;99.90
15013;DHT22;7603;49.432;11.418;2022-08-19T08:41:22;23.30;99.90
15013;DHT22;7603;49.432;11.418;2022-08-19T08:43:54;23.30;99.90
15013;DHT22;7603;49.432;11.418;2022-08-19T08:46:35;23.30;99.90
15013;DHT22;7603;49.432;11.418;2022-08-19T08:51:47;23.40;99.90
15013;DHT22;7603;49.432;11.418;2022-08-19T08:54:19;23.50;99.90
15013;DHT22;7603;49.432;11.418;2022-08-19T08:56:46;23.50;99.90
15013;DHT22;7603;49.432;11.418;2022-08-19T09:01:46;23.60;99.90
15013;DHT22;7603;49.432;11.418;2022-08-19T09:04:12;23.70;99.90
15013;DHT22;7603;49.432;11.418;2022-08-19T09:09:34;23.80;99.90
15013;DHT22;7603;49.432;11.418;2022-08-19T09:12:21;23.90;99.90
15013;DHT22;7603;49.432;11.418;2022-08-19T09:17:24;23.80;99.90
15013;DHT22;7603;49.432;11.418;2022-08-19T09:19:58;23.80;99.90
15013;DHT22;7603;49.432;11.418;2022-08-19T09:22:29;23.80;99.90
15013;DHT22;7603;49.432;11.418;2022-08-19T09:24:55;23.80;99.90
15013;DHT22;7603;49.432;11.418;2022-08-19T09:27:21;23.70;99.90
15013;DHT22;7603;49.432;11.418;2022-08-19T09:29:49;23.60;99.90
15013;DHT22;7603;49.432;11.418;2022-08-19T09:32:16;23.70;99.90
15013;DHT22;7603;49.432;11.418;2022-08-19T09:34:44;23.80;99.90
15013;DHT22;7603;49.432;11.418;2022-08-19T09:37:11;23.80;99.90
15013;DHT22;7603;49.432;11.418;2022-08-19T09:39:38;23.90;99.90
15013;DHT22;7603;49.432;11.418;2022-08-19T09:42:04;24.00;99.90
15013;DHT22;7603;49.432;11.418;2022-08-19T09:44:30;24.10;99.90
15013;DHT22;7603;49.432;11.418;2022-08-19T09:46:56;24.20;99.90
15013;DHT22;7603;49.432;11.418;2022-08-19T09:49:22;24.10;99.90
15013;DHT22;7603;49.432;11.418;2022-08-19T09:51:52;24.10;99.90
15013;DHT22;7603;49.432;11.418;2022-08-19T09:54:21;24.00;99.90
15013;DHT22;7603;49.432;11.418;2022-08-19T09:56:47;23.80;99.90
15013;DHT22;7603;49.432;11.418;2022-08-19T09:59:13;23.60;99.90
15013;DHT22;7603;49.432;11.418;2022-08-19T10:01:38;23.40;99.90
15013;DHT22;7603;49.432;11.418;2022-08-19T10:04:04;23.30;99.90
15013;DHT22;7603;49.432;11.418;2022-08-19T10:06:35;23.20;99.90
15013;DHT22;7603;49.432;11.418;2022-08-19T10:09:02;23.00;99.90
15013;DHT22;7603;49.432;11.418;2022-08-19T10:11:30;22.80;99.90
15013;DHT22;7603;49.432;11.418;2022-08-19T10:13:55;22.80;99.90
15013;DHT22;7603;49.432;11.418;2022-08-19T10:16:23;22.60;99.90
15013;DHT22;7603;49.432;11.418;2022-08-19T10:18:49;22.50;99.90
15013;DHT22;7603;49.432;11.418;2022-08-19T10:21:19;22.40;99.90
15013;DHT22;7603;49.432;11.418;2022-08-19T10:23:47;22.40;99.90
15013;DHT22;7603;49.432;11.418;2022-08-19T10:26:20;22.50;99.90
15013;DHT22;7603;49.432;11.418;2022-08-19T10:28:46;22.50;99.90
15013;DHT22;7603;49.432;11.418;2022-08-19T10:31:14;22.50;99.90
15013;DHT22;7603;49.432;11.418;2022-08-19T10:33:41;22.60;99.90
15013;DHT22;7603;49.432;11.418;2022-08-19T10:36:13;22.70;99.90
15013;DHT22;7603;49.432;11.418;2022-08-19T10:38:43;22.80;99.90
15013;DHT22;7603;49.432;11.418;2022-08-19T10:41:19;23.00;99.90
15013;DHT22;7603;49.432;11.418;2022-08-19T10:43:47;23.20;99.90
15013;DHT22;7603;49.432;11.418;2022-08-19T10:46:16;23.40;99.90
15013;DHT22;7603;49.432;11.418;2022-08-19T10:48:42;23.60;99.90
15013;DHT22;7603;49.432;11.418;2022-08-19T10:51:09;23.70;99.90
15013;DHT22;7603;49.432;11.418;2022-08-19T10:53:53;23.70;99.90
15013;DHT22;7603;49.432;11.418;2022-08-19T10:56:19;23.70;99.90
15013;DHT22;7603;49.432;11.418;2022-08-19T10:59:04;23.60;99.90
15013;DHT22;7603;49.432;11.418;2022-08-19T11:01:31;23.50;99.90
15013;DHT22;7603;49.432;11.418;2022-08-19T11:03:59;23.50;99.90
15013;DHT22;7603;49.432;11.418;2022-08-19T11:06:25;23.40;99.90
15013;DHT22;7603;49.432;11.418;2022-08-19T11:08:52;23.40;99.90
15013;DHT22;7603;49.432;11.418;2022-08-19T11:11:18;23.40;99.90
15013;DHT22;7603;49.432;11.418;2022-08-19T11:13:44;23.40;99.90
15013;DHT22;7603;49.432;11.418;2022-08-19T11:16:15;23.40;99.90
15013;DHT22;7603;49.432;11.418;2022-08-19T11:18:44;23.50;99.90
15013;DHT22;7603;49.432;11.418;2022-08-19T11:21:16;23.60;99.90
15013;DHT22;7603;49.432;11.418;2022-08-19T11:23:43;23.70;99.90
15013;DHT22;7603;49.432;11.418;2022-08-19T11:26:09;23.90;99.90
15013;DHT22;7603;49.432;11.418;2022-08-19T11:28:36;24.00;99.90
15013;DHT22;7603;49.432;11.418;2022-08-19T11:31:02;24.20;99.90
15013;DHT22;7603;49.432;11.418;2022-08-19T11:33:30;24.30;99.90
15013;DHT22;7603;49.432;11.418;2022-08-19T11:35:58;24.30;99.90
15013;DHT22;7603;49.432;11.418;2022-08-19T11:38:25;24.40;99.90
15013;DHT22;7603;49.432;11.418;2022-08-19T11:41:02;24.40;99.90
15013;DHT22;7603;49.432;11.418;2022-08-19T11:43:29;24.50;99.90
15013;DHT22;7603;49.432;11.418;2022-08-19T11:45:56;24.60;99.90
15013;DHT22;7603;49.432;11.418;2022-08-19T11:48:22;24.70;99.90
15013;DHT22;7603;49.432;11.418;2022-08-19T11:50:52;24.80;99.90
15013;DHT22;7603;49.432;11.418;2022-08-19T11:53:20;24.90;99.90
15013;DHT22;7603;49.432;11.418;2022-08-19T11:55:47;25.30;99.90
15013;DHT22;7603;49.432;11.418;2022-08-19T11:58:14;25.80;99.90
15013;DHT22;7603;49.432;11.418;2022-08-19T12:00:40;26.20;99.90
15013;DHT22;7603;49.432;11.418;2022-08-19T12:03:07;26.60;99.90
15013;DHT22;7603;49.432;11.418;2022-08-19T12:05:32;27.00;99.90
15013;DHT22;7603;49.432;11.418;2022-08-19T12:07:58;27.30;99.90
15013;DHT22;7603;49.432;11.418;2022-08-19T12:10:24;27.30;99.90
15013;DHT22;7603;49.432;11.418;2022-08-19T12:12:50;27.20;99.90
15013;DHT22;7603;49.432;11.418;2022-08-19T12:15:16;27.00;99.90
15013;DHT22;7603;49.432;11.418;2022-08-19T12:17:42;26.60;99.90
15013;DHT22;7603;49.432;11.418;2022-08-19T12:20:09;26.30;99.90
15013;DHT22;7603;49.432;11.418;2022-08-19T12:22:36;26.00;99.90
15013;DHT22;7603;49.432;11.418;2022-08-19T12:25:03;25.60;99.90
15013;DHT22;7603;49.432;11.418;2022-08-19T12:27:29;25.30;99.90
15013;DHT22;7603;49.432;11.418;2022-08-19T12:29:54;25.00;99.90
15013;DHT22;7603;49.432;11.418;2022-08-19T12:32:20;24.90;99.90
15013;DHT22;7603;49.432;11.418;2022-08-19T12:34:46;24.90;99.90
15013;DHT22;7603;49.432;11.418;2022-08-19T12:37:13;24.90;99.90
15013;DHT22;7603;49.432;11.418;2022-08-19T12:39:41;24.90;99.90
15013;DHT22;7603;49.432;11.418;2022-08-19T12:42:11;25.00;99.90
15013;DHT22;7603;49.432;11.418;2022-08-19T12:44:39;25.20;99.90
15013;DHT22;7603;49.432;11.418;2022-08-19T12:47:06;25.20;99.90
15013;DHT22;7603;49.432;11.418;2022-08-19T12:49:33;25.10;99.90
15013;DHT22;7603;49.432;11.418;2022-08-19T12:52:03;24.90;99.90
15013;DHT22;7603;49.432;11.418;2022-08-19T12:54:29;24.70;99.90
15013;DHT22;7603;49.432;11.418;2022-08-19T12:56:56;24.40;99.90
15013;DHT22;7603;49.432;11.418;2022-08-19T12:59:22;24.20;99.90
15013;DHT22;7603;49.432;11.418;2022-08-19T13:01:48;23.90;99.90
15013;DHT22;7603;49.432;11.418;2022-08-19T13:04:13;23.80;99.90
15013;DHT22;7603;49.432;11.418;2022-08-19T13:06:39;23.60;99.90
15013;DHT22;7603;49.432;11.418;2022-08-19T13:09:05;23.50;99.90
15013;DHT22;7603;49.432;11.418;2022-08-19T13:11:31;23.40;99.90
15013;DHT22;7603;49.432;11.418;2022-08-19T13:14:00;23.40;99.90
15013;DHT22;7603;49.432;11.418;2022-08-19T13:16:26;23.60;99.90
15013;DHT22;7603;49.432;11.418;2022-08-19T13:18:54;23.90;99.90
15013;DHT22;7603;49.432;11.418;2022-08-19T13:21:22;24.20;99.90
15013;DHT22;7603;49.432;11.418;2022-08-19T13:23:49;24.40;99.90
15013;DHT22;7603;49.432;11.418;2022-08-19T13:26:15;24.50;99.90
15013;DHT22;7603;49.432;11.418;2022-08-19T13:28:42;24.30;99.90
15013;DHT22;7603;49.432;11.418;2022-08-19T13:31:32;24.10;99.90
15013;DHT22;7603;49.432;11.418;2022-08-19T13:34:18;23.90;99.90
15013;DHT22;7603;49.432;11.418;2022-08-19T13:36:45;23.60;99.90
15013;DHT22;7603;49.432;11.418;2022-08-19T13:39:11;23.40;99.90
15013;DHT22;7603;49.432;11.418;2022-08-19T13:41:37;23.10;99.90
15013;DHT22;7603;49.432;11.418;2022-08-19T13:44:04;22.80;99.90
15013;DHT22;7603;49.432;11.418;2022-08-19T13:46:31;22.60;99.90
15013;DHT22;7603;49.432;11.418;2022-08-19T13:48:57;22.40;99.90
15013;DHT22;7603;49.432;11.418;2022-08-19T13:51:23;22.10;99.90
15013;DHT22;7603;49.432;11.418;2022-08-19T13:53:48;21.90;99.90
15013;DHT22;7603;49.432;11.418;2022-08-19T13:56:17;21.50;99.90
15013;DHT22;7603;49.432;11.418;2022-08-19T13:58:45;21.20;99.90
15013;DHT22;7603;49.432;11.418;2022-08-19T14:01:11;20.90;99.90
15013;DHT22;7603;49.432;11.418;2022-08-19T14:03:37;20.60;99.90
15013;DHT22;7603;49.432;11.418;2022-08-19T14:06:03;20.40;99.90
15013;DHT22;7603;49.432;11.418;2022-08-19T14:08:29;20.30;99.90
15013;DHT22;7603;49.432;11.418;2022-08-19T14:10:58;20.20;99.90
15013;DHT22;7603;49.432;11.418;2022-08-19T14:13:24;20.20;99.90
15013;DHT22;7603;49.432;11.418;2022-08-19T14:15:50;20.10;99.90
15013;DHT22;7603;49.432;11.418;2022-08-19T14:18:18;20.10;99.90
15013;DHT22;7603;49.432;11.418;2022-08-19T14:20:44;20.10;99.90
15013;DHT22;7603;49.432;11.418;2022-08-19T14:23:09;20.10;99.90
15013;DHT22;7603;49.432;11.418;2022-08-19T14:25:37;20.10;99.90
15013;DHT22;7603;49.432;11.418;2022-08-19T14:28:03;20.20;99.90
15013;DHT22;7603;49.432;11.418;2022-08-19T14:30:31;20.20;99.90
15013;DHT22;7603;49.432;11.418;2022-08-19T14:32:59;20.30;99.90
15013;DHT22;7603;49.432;11.418;2022-08-19T14:35:28;20.30;99.90
15013;DHT22;7603;49.432;11.418;2022-08-19T14:37:54;20.40;99.90
15013;DHT22;7603;49.432;11.418;2022-08-19T14:40:26;20.50;99.90
15013;DHT22;7603;49.432;11.418;2022-08-19T14:42:53;20.60;99.90
15013;DHT22;7603;49.432;11.418;2022-08-19T14:45:25;20.60;99.90
15013;DHT22;7603;49.432;11.418;2022-08-19T14:47:51;20.60;99.90
15013;DHT22;7603;49.432;11.418;2022-08-19T14:50:17;20.60;99.90
15013;DHT22;7603;49.432;11.418;2022-08-19T14:52:44;20.60;99.90
15013;DHT22;7603;49.432;11.418;2022-08-19T14:55:09;20.60;99.90
15013;DHT22;7603;49.432;11.418;2022-08-19T14:57:35;20.50;99.90
15013;DHT22;7603;49.432;11.418;2022-08-19T15:00:01;20.50;99.90
15013;DHT22;7603;49.432;11.418;2022-08-19T15:02:27;20.50;99.90
15013;DHT22;7603;49.432;11.418;2022-08-19T15:04:52;20.50;99.90
15013;DHT22;7603;49.432;11.418;2022-08-19T15:07:20;20.50;99.90
15013;DHT22;7603;49.432;11.418;2022-08-19T15:09:49;20.40;99.90
15013;DHT22;7603;49.432;11.418;2022-08-19T15:12:15;20.40;99.90
15013;DHT22;7603;49.432;11.418;2022-08-19T15:14:41;20.40;99.90
15013;DHT22;7603;49.432;11.418;2022-08-19T15:17:09;20.40;99.90
15013;DHT22;7603;49.432;11.418;2022-08-19T15:19:35;20.40;99.90
15013;DHT22;7603;49.432;11.418;2022-08-19T15:22:01;20.40;99.90
15013;DHT22;7603;49.432;11.418;2022-08-19T15:24:27;20.40;99.90
15013;DHT22;7603;49.432;11.418;2022-08-19T15:26:53;20.40;99.90
15013;DHT22;7603;49.432;11.418;2022-08-19T15:29:21;20.40;99.90
15013;DHT22;7603;49.432;11.418;2022-08-19T15:31:48;20.40;99.90
15013;DHT22;7603;49.432;11.418;2022-08-19T15:34:15;20.50;99.90
15013;DHT22;7603;49.432;11.418;2022-08-19T15:36:42;20.50;99.90
15013;DHT22;7603;49.432;11.418;2022-08-19T15:39:08;20.50;99.90
15013;DHT22;7603;49.432;11.418;2022-08-19T15:41:35;20.50;99.90
15013;DHT22;7603;49.432;11.418;2022-08-19T15:44:10;20.50;99.90
15013;DHT22;7603;49.432;11.418;2022-08-19T15:46:39;20.40;99.90